Melrose, NM (88124)

5:38 AM MDT on April 30, 2017 (GMT -0600)
Melrose | | Change Station

Elev 4600 ft 34.43 °N, 103.63 °W | Updated 3 seconds ago

Mostly Cloudy
Mostly Cloudy
35.6 °F
Feels Like 30 °F
N
6.9
Wind Variable Wind from WNW
Gusts 21.0 mph

Today
High -- | Low -- °F
--% Chance of Precip.
Yesterday
High -- | Low -- °F
Precip. -- in
Pressure 30.01 in
Visibility 10.0 miles
Clouds Overcast 3800 ft
Windchill 30 °F
Dew Point 32 °F
Humidity 86%
Rainfall 0.00 in
Snow Depth Not available.
6:05 AM 7:38 PM
Waxing Crescent, 22% visible
METAR K4MR 301058Z AUTO 31012KT 10SM OVC038 01/00 A2999 RMK AO2 SLP163 T00131005 $
Pressure 30.01 in
Visibility 10.0 miles
Clouds Overcast 3800 ft
Windchill 30 °F
Dew Point 32 °F
Humidity 86%
Rainfall 0.00 in
Snow Depth Not available.
6:05 AM 7:38 PM
Waxing Crescent, 22% visible
METAR K4MR 301058Z AUTO 31012KT 10SM OVC038 01/00 A2999 RMK AO2 SLP163 T00131005 $

Get Severe Weather Alerts

Thanks for signing up!

Be on the lookout for a verification email in your inbox.

You'll start receiving the daily forecast at 8 AM.

×

10-Day Weather Forecast

Almanac

Astronomy

Apr. 30, 2017 Rise Set
Actual Time
Civil Twilight
Nautical Twilight
Astronomical Twilight
Moon
Length of Visible Light
Length of Day
Tomorrow will be .
, % of the Moon is Illuminated

Today's Extremes

State Highs State Lows

Community

WunderPhotos

WunderBlog® & News

Nearby

Air Quality

  Air Quality AQ Index Pollutant
Not available.

Snow Depth

Station Depth Elevation

Earthquake Activity

City Distance Mag. Time & Date
Minimum magnitude displayed is 2.5.

Coastal Water Temperatures

Place Temperature

Stations

Nearby Weather Stations

Station Location Temp. Windchill Dew Point Humidity Wind Precip. Elev Updated Type
                   

Watches & Warnings

There are currently no watches in effect.